sensor_id;sensor_type;location;lat;lon;timestamp;temperature;humidity
10344;DHT22;5217;43.960;10.954;2023-05-17T00:02:01;17.70;99.90
10344;DHT22;5217;43.960;10.954;2023-05-17T00:04:29;17.70;99.90
10344;DHT22;5217;43.960;10.954;2023-05-17T00:06:59;17.70;99.90
10344;DHT22;5217;43.960;10.954;2023-05-17T00:09:30;17.70;99.90
10344;DHT22;5217;43.960;10.954;2023-05-17T00:11:58;17.70;99.90
10344;DHT22;5217;43.960;10.954;2023-05-17T00:14:27;17.70;99.80
10344;DHT22;5217;43.960;10.954;2023-05-17T00:16:55;17.70;99.60
10344;DHT22;5217;43.960;10.954;2023-05-17T00:19:25;17.70;99.40
10344;DHT22;5217;43.960;10.954;2023-05-17T00:21:54;17.70;99.40
10344;DHT22;5217;43.960;10.954;2023-05-17T00:24:22;17.70;99.40
10344;DHT22;5217;43.960;10.954;2023-05-17T00:26:51;17.70;99.40
10344;DHT22;5217;43.960;10.954;2023-05-17T00:29:20;17.70;99.30
10344;DHT22;5217;43.960;10.954;2023-05-17T00:31:48;17.60;99.10
10344;DHT22;5217;43.960;10.954;2023-05-17T00:34:17;17.70;99.10
10344;DHT22;5217;43.960;10.954;2023-05-17T00:36:46;17.60;99.00
10344;DHT22;5217;43.960;10.954;2023-05-17T00:39:15;17.70;99.00
10344;DHT22;5217;43.960;10.954;2023-05-17T00:41:43;17.60;99.00
10344;DHT22;5217;43.960;10.954;2023-05-17T00:44:12;17.70;99.00
10344;DHT22;5217;43.960;10.954;2023-05-17T00:46:40;17.60;98.90
10344;DHT22;5217;43.960;10.954;2023-05-17T00:49:09;17.60;99.00
10344;DHT22;5217;43.960;10.954;2023-05-17T00:51:38;17.60;99.10
10344;DHT22;5217;43.960;10.954;2023-05-17T00:54:08;17.60;99.00
10344;DHT22;5217;43.960;10.954;2023-05-17T00:56:37;17.60;99.40
10344;DHT22;5217;43.960;10.954;2023-05-17T00:59:06;17.60;99.70
10344;DHT22;5217;43.960;10.954;2023-05-17T01:01:37;17.60;99.80
10344;DHT22;5217;43.960;10.954;2023-05-17T01:04:08;17.60;99.60
10344;DHT22;5217;43.960;10.954;2023-05-17T01:06:37;17.60;99.70
10344;DHT22;5217;43.960;10.954;2023-05-17T01:09:07;17.60;99.90
10344;DHT22;5217;43.960;10.954;2023-05-17T01:11:43;17.60;99.90
10344;DHT22;5217;43.960;10.954;2023-05-17T01:14:24;17.60;99.90
10344;DHT22;5217;43.960;10.954;2023-05-17T01:16:56;17.60;99.90
10344;DHT22;5217;43.960;10.954;2023-05-17T01:22:35;17.50;99.90
10344;DHT22;5217;43.960;10.954;2023-05-17T01:25:34;17.50;99.90
10344;DHT22;5217;43.960;10.954;2023-05-17T01:28:05;17.50;99.90
10344;DHT22;5217;43.960;10.954;2023-05-17T01:30:36;17.50;99.90
10344;DHT22;5217;43.960;10.954;2023-05-17T01:33:05;17.50;99.90
10344;DHT22;5217;43.960;10.954;2023-05-17T01:35:34;17.50;99.90
10344;DHT22;5217;43.960;10.954;2023-05-17T01:38:02;17.50;99.80
10344;DHT22;5217;43.960;10.954;2023-05-17T01:40:34;17.40;99.60
10344;DHT22;5217;43.960;10.954;2023-05-17T01:43:09;17.40;99.10
10344;DHT22;5217;43.960;10.954;2023-05-17T01:45:48;17.50;99.40
10344;DHT22;5217;43.960;10.954;2023-05-17T01:48:23;17.40;98.90
10344;DHT22;5217;43.960;10.954;2023-05-17T01:50:55;17.50;99.30
10344;DHT22;5217;43.960;10.954;2023-05-17T01:53:29;17.50;99.60
10344;DHT22;5217;43.960;10.954;2023-05-17T01:56:03;17.50;99.50
10344;DHT22;5217;43.960;10.954;2023-05-17T01:58:39;17.50;99.50
10344;DHT22;5217;43.960;10.954;2023-05-17T02:01:13;17.50;99.70
10344;DHT22;5217;43.960;10.954;2023-05-17T02:03:42;17.40;99.40
10344;DHT22;5217;43.960;10.954;2023-05-17T02:06:11;17.40;98.90
10344;DHT22;5217;43.960;10.954;2023-05-17T02:08:39;17.50;99.00
10344;DHT22;5217;43.960;10.954;2023-05-17T02:11:08;17.50;99.10
10344;DHT22;5217;43.960;10.954;2023-05-17T02:13:38;17.50;99.10
10344;DHT22;5217;43.960;10.954;2023-05-17T02:16:06;17.60;99.20
10344;DHT22;5217;43.960;10.954;2023-05-17T02:18:35;17.60;99.20
10344;DHT22;5217;43.960;10.954;2023-05-17T02:21:04;17.60;99.10
10344;DHT22;5217;43.960;10.954;2023-05-17T02:23:33;17.60;99.10
10344;DHT22;5217;43.960;10.954;2023-05-17T02:26:01;17.60;99.20
10344;DHT22;5217;43.960;10.954;2023-05-17T02:28:30;17.60;99.30
10344;DHT22;5217;43.960;10.954;2023-05-17T02:31:00;17.60;99.40
10344;DHT22;5217;43.960;10.954;2023-05-17T02:33:29;17.60;99.50
10344;DHT22;5217;43.960;10.954;2023-05-17T02:35:57;17.60;99.50
10344;DHT22;5217;43.960;10.954;2023-05-17T02:38:26;17.60;99.40
10344;DHT22;5217;43.960;10.954;2023-05-17T02:40:54;17.60;99.20
10344;DHT22;5217;43.960;10.954;2023-05-17T02:43:23;17.60;99.20
10344;DHT22;5217;43.960;10.954;2023-05-17T02:45:51;17.60;99.30
10344;DHT22;5217;43.960;10.954;2023-05-17T02:48:21;17.60;99.40
10344;DHT22;5217;43.960;10.954;2023-05-17T02:50:49;17.60;99.40
10344;DHT22;5217;43.960;10.954;2023-05-17T02:53:18;17.60;99.40
10344;DHT22;5217;43.960;10.954;2023-05-17T02:55:46;17.60;99.40
10344;DHT22;5217;43.960;10.954;2023-05-17T02:58:15;17.60;99.40
10344;DHT22;5217;43.960;10.954;2023-05-17T03:00:44;17.60;99.40
10344;DHT22;5217;43.960;10.954;2023-05-17T03:03:13;17.60;99.30
10344;DHT22;5217;43.960;10.954;2023-05-17T03:05:44;17.70;99.30
10344;DHT22;5217;43.960;10.954;2023-05-17T03:08:12;17.60;99.10
10344;DHT22;5217;43.960;10.954;2023-05-17T03:10:41;17.60;99.10
10344;DHT22;5217;43.960;10.954;2023-05-17T03:13:09;17.60;99.20
10344;DHT22;5217;43.960;10.954;2023-05-17T03:15:37;17.60;99.10
10344;DHT22;5217;43.960;10.954;2023-05-17T03:18:06;17.60;99.10
10344;DHT22;5217;43.960;10.954;2023-05-17T03:20:34;17.60;99.20
10344;DHT22;5217;43.960;10.954;2023-05-17T03:23:04;17.60;99.20
10344;DHT22;5217;43.960;10.954;2023-05-17T03:25:33;17.70;99.00
10344;DHT22;5217;43.960;10.954;2023-05-17T03:28:01;17.70;99.00
10344;DHT22;5217;43.960;10.954;2023-05-17T03:30:30;17.60;98.80
10344;DHT22;5217;43.960;10.954;2023-05-17T03:32:58;17.60;98.90
10344;DHT22;5217;43.960;10.954;2023-05-17T03:35:27;17.60;99.00
10344;DHT22;5217;43.960;10.954;2023-05-17T03:37:56;17.60;99.00
10344;DHT22;5217;43.960;10.954;2023-05-17T03:40:26;17.60;99.10
10344;DHT22;5217;43.960;10.954;2023-05-17T03:42:54;17.60;99.00
10344;DHT22;5217;43.960;10.954;2023-05-17T03:45:23;17.60;99.10
10344;DHT22;5217;43.960;10.954;2023-05-17T03:47:52;17.60;99.20
10344;DHT22;5217;43.960;10.954;2023-05-17T03:50:20;17.60;99.30
10344;DHT22;5217;43.960;10.954;2023-05-17T03:52:49;17.60;99.40
10344;DHT22;5217;43.960;10.954;2023-05-17T03:55:17;17.60;99.70
10344;DHT22;5217;43.960;10.954;2023-05-17T03:57:47;17.60;99.80
10344;DHT22;5217;43.960;10.954;2023-05-17T04:00:16;17.60;99.90
10344;DHT22;5217;43.960;10.954;2023-05-17T04:02:49;17.60;99.90
10344;DHT22;5217;43.960;10.954;2023-05-17T04:05:18;17.60;99.90
10344;DHT22;5217;43.960;10.954;2023-05-17T04:07:47;17.60;99.90
10344;DHT22;5217;43.960;10.954;2023-05-17T04:10:16;17.60;99.90
10344;DHT22;5217;43.960;10.954;2023-05-17T04:12:44;17.60;99.90
10344;DHT22;5217;43.960;10.954;2023-05-17T04:15:14;17.60;99.90
10344;DHT22;5217;43.960;10.954;2023-05-17T04:17:43;17.50;99.90
10344;DHT22;5217;43.960;10.954;2023-05-17T04:20:12;17.50;99.90
10344;DHT22;5217;43.960;10.954;2023-05-17T04:22:40;17.50;99.90
10344;DHT22;5217;43.960;10.954;2023-05-17T04:25:09;17.60;99.90
10344;DHT22;5217;43.960;10.954;2023-05-17T04:27:38;17.60;99.90
10344;DHT22;5217;43.960;10.954;2023-05-17T04:30:07;17.60;99.90
10344;DHT22;5217;43.960;10.954;2023-05-17T04:32:37;17.60;99.90
10344;DHT22;5217;43.960;10.954;2023-05-17T04:35:06;17.60;99.90
10344;DHT22;5217;43.960;10.954;2023-05-17T04:37:35;17.60;99.90
10344;DHT22;5217;43.960;10.954;2023-05-17T04:40:07;17.50;99.90
10344;DHT22;5217;43.960;10.954;2023-05-17T04:42:36;17.50;99.90
10344;DHT22;5217;43.960;10.954;2023-05-17T04:45:06;17.50;99.90
10344;DHT22;5217;43.960;10.954;2023-05-17T04:47:36;17.50;99.90
10344;DHT22;5217;43.960;10.954;2023-05-17T04:50:06;17.50;99.90
10344;DHT22;5217;43.960;10.954;2023-05-17T04:52:34;17.50;99.90
10344;DHT22;5217;43.960;10.954;2023-05-17T04:55:03;17.50;99.90
10344;DHT22;5217;43.960;10.954;2023-05-17T04:57:31;17.50;99.90
10344;DHT22;5217;43.960;10.954;2023-05-17T05:00:01;17.50;99.90
10344;DHT22;5217;43.960;10.954;2023-05-17T05:02:30;17.40;99.90
10344;DHT22;5217;43.960;10.954;2023-05-17T05:05:00;17.40;99.90
10344;DHT22;5217;43.960;10.954;2023-05-17T05:07:29;17.40;99.90
10344;DHT22;5217;43.960;10.954;2023-05-17T05:09:58;17.40;99.90
10344;DHT22;5217;43.960;10.954;2023-05-17T05:12:27;17.40;99.90
10344;DHT22;5217;43.960;10.954;2023-05-17T05:14:55;17.40;99.90
10344;DHT22;5217;43.960;10.954;2023-05-17T05:17:27;17.40;99.90
10344;DHT22;5217;43.960;10.954;2023-05-17T05:19:56;17.40;99.90
10344;DHT22;5217;43.960;10.954;2023-05-17T05:22:26;17.40;99.90
10344;DHT22;5217;43.960;10.954;2023-05-17T05:24:55;17.40;99.90
10344;DHT22;5217;43.960;10.954;2023-05-17T05:27:23;17.40;99.90
10344;DHT22;5217;43.960;10.954;2023-05-17T05:29:54;17.40;99.90
10344;DHT22;5217;43.960;10.954;2023-05-17T05:32:23;17.40;99.90
10344;DHT22;5217;43.960;10.954;2023-05-17T05:34:51;17.40;99.90
10344;DHT22;5217;43.960;10.954;2023-05-17T05:37:19;17.40;99.90
10344;DHT22;5217;43.960;10.954;2023-05-17T05:39:49;17.50;99.90
10344;DHT22;5217;43.960;10.954;2023-05-17T05:42:18;17.40;99.90
10344;DHT22;5217;43.960;10.954;2023-05-17T05:44:46;17.40;99.90
10344;DHT22;5217;43.960;10.954;2023-05-17T05:47:15;17.40;99.90
10344;DHT22;5217;43.960;10.954;2023-05-17T05:49:43;17.40;99.90
10344;DHT22;5217;43.960;10.954;2023-05-17T05:52:11;17.50;99.90
10344;DHT22;5217;43.960;10.954;2023-05-17T05:54:40;17.50;99.90
10344;DHT22;5217;43.960;10.954;2023-05-17T05:57:10;17.50;99.90
10344;DHT22;5217;43.960;10.954;2023-05-17T05:59:38;17.50;99.90
10344;DHT22;5217;43.960;10.954;2023-05-17T06:02:07;17.50;99.90
10344;DHT22;5217;43.960;10.954;2023-05-17T06:04:35;17.50;99.90
10344;DHT22;5217;43.960;10.954;2023-05-17T06:07:11;17.50;99.90
10344;DHT22;5217;43.960;10.954;2023-05-17T06:09:40;17.50;99.90
10344;DHT22;5217;43.960;10.954;2023-05-17T06:12:10;17.50;99.90
10344;DHT22;5217;43.960;10.954;2023-05-17T06:14:38;17.50;99.90
10344;DHT22;5217;43.960;10.954;2023-05-17T06:17:07;17.50;99.90
10344;DHT22;5217;43.960;10.954;2023-05-17T06:19:35;17.40;99.90
10344;DHT22;5217;43.960;10.954;2023-05-17T06:22:04;17.40;99.90
10344;DHT22;5217;43.960;10.954;2023-05-17T06:24:32;17.40;99.90
10344;DHT22;5217;43.960;10.954;2023-05-17T06:27:02;17.40;99.90
10344;DHT22;5217;43.960;10.954;2023-05-17T06:29:32;17.40;99.90
10344;DHT22;5217;43.960;10.954;2023-05-17T06:32:01;17.40;99.90
10344;DHT22;5217;43.960;10.954;2023-05-17T06:34:29;17.50;99.90
10344;DHT22;5217;43.960;10.954;2023-05-17T06:36:58;17.40;99.90
10344;DHT22;5217;43.960;10.954;2023-05-17T06:39:26;17.40;99.90
10344;DHT22;5217;43.960;10.954;2023-05-17T06:41:54;17.40;99.90
10344;DHT22;5217;43.960;10.954;2023-05-17T06:44:23;17.40;99.90
10344;DHT22;5217;43.960;10.954;2023-05-17T06:46:53;17.40;99.90
10344;DHT22;5217;43.960;10.954;2023-05-17T06:49:22;17.50;99.90
10344;DHT22;5217;43.960;10.954;2023-05-17T06:51:51;17.50;99.90
10344;DHT22;5217;43.960;10.954;2023-05-17T06:54:21;17.50;99.90
10344;DHT22;5217;43.960;10.954;2023-05-17T06:56:50;17.50;99.90
10344;DHT22;5217;43.960;10.954;2023-05-17T06:59:19;17.50;99.90
10344;DHT22;5217;43.960;10.954;2023-05-17T07:01:47;17.50;99.90
10344;DHT22;5217;43.960;10.954;2023-05-17T07:04:17;17.50;99.90
10344;DHT22;5217;43.960;10.954;2023-05-17T07:06:47;17.50;99.90
10344;DHT22;5217;43.960;10.954;2023-05-17T07:09:15;17.60;99.90
10344;DHT22;5217;43.960;10.954;2023-05-17T07:11:44;17.60;99.90
10344;DHT22;5217;43.960;10.954;2023-05-17T07:14:12;17.60;99.90
10344;DHT22;5217;43.960;10.954;2023-05-17T07:16:41;17.60;99.90
10344;DHT22;5217;43.960;10.954;2023-05-17T07:19:09;17.60;99.90
10344;DHT22;5217;43.960;10.954;2023-05-17T07:21:39;17.70;99.90
10344;DHT22;5217;43.960;10.954;2023-05-17T07:24:08;17.70;99.90
10344;DHT22;5217;43.960;10.954;2023-05-17T07:26:37;17.70;99.90
10344;DHT22;5217;43.960;10.954;2023-05-17T07:29:05;17.70;99.90
10344;DHT22;5217;43.960;10.954;2023-05-17T07:31:34;17.70;99.90
10344;DHT22;5217;43.960;10.954;2023-05-17T07:34:05;17.70;99.90
10344;DHT22;5217;43.960;10.954;2023-05-17T07:36:34;17.80;99.90
10344;DHT22;5217;43.960;10.954;2023-05-17T07:39:04;17.80;99.90
10344;DHT22;5217;43.960;10.954;2023-05-17T07:41:32;17.80;99.90
10344;DHT22;5217;43.960;10.954;2023-05-17T07:44:02;17.80;99.90
10344;DHT22;5217;43.960;10.954;2023-05-17T07:46:30;17.80;99.90
10344;DHT22;5217;43.960;10.954;2023-05-17T07:48:59;17.80;99.90
10344;DHT22;5217;43.960;10.954;2023-05-17T07:51:27;17.80;99.90
10344;DHT22;5217;43.960;10.954;2023-05-17T07:53:56;17.90;99.90
10344;DHT22;5217;43.960;10.954;2023-05-17T07:56:26;17.90;99.90
10344;DHT22;5217;43.960;10.954;2023-05-17T07:58:54;17.90;99.90
10344;DHT22;5217;43.960;10.954;2023-05-17T08:01:23;17.90;99.90
10344;DHT22;5217;43.960;10.954;2023-05-17T08:03:52;17.90;99.90
10344;DHT22;5217;43.960;10.954;2023-05-17T08:06:21;17.90;99.90
10344;DHT22;5217;43.960;10.954;2023-05-17T08:08:49;17.90;99.90
10344;DHT22;5217;43.960;10.954;2023-05-17T08:11:18;17.90;99.90
10344;DHT22;5217;43.960;10.954;2023-05-17T08:13:48;17.90;99.90
10344;DHT22;5217;43.960;10.954;2023-05-17T08:16:17;17.90;99.90
10344;DHT22;5217;43.960;10.954;2023-05-17T08:18:45;17.90;99.90
10344;DHT22;5217;43.960;10.954;2023-05-17T08:21:14;17.90;99.90
10344;DHT22;5217;43.960;10.954;2023-05-17T08:23:43;17.90;99.90
10344;DHT22;5217;43.960;10.954;2023-05-17T08:26:11;18.00;99.90
10344;DHT22;5217;43.960;10.954;2023-05-17T08:28:40;17.90;99.90
10344;DHT22;5217;43.960;10.954;2023-05-17T08:31:09;18.00;99.90
10344;DHT22;5217;43.960;10.954;2023-05-17T08:33:38;18.00;99.90
10344;DHT22;5217;43.960;10.954;2023-05-17T08:36:07;18.00;99.90
10344;DHT22;5217;43.960;10.954;2023-05-17T08:38:36;18.00;99.90
10344;DHT22;5217;43.960;10.954;2023-05-17T08:41:04;18.00;99.90
10344;DHT22;5217;43.960;10.954;2023-05-17T08:43:33;18.00;99.90
10344;DHT22;5217;43.960;10.954;2023-05-17T08:46:02;18.00;99.90
10344;DHT22;5217;43.960;10.954;2023-05-17T08:48:33;18.00;99.90
10344;DHT22;5217;43.960;10.954;2023-05-17T08:51:08;18.00;99.90
10344;DHT22;5217;43.960;10.954;2023-05-17T08:53:37;18.00;99.90
10344;DHT22;5217;43.960;10.954;2023-05-17T08:56:06;18.10;99.90
10344;DHT22;5217;43.960;10.954;2023-05-17T08:58:35;18.10;99.90
10344;DHT22;5217;43.960;10.954;2023-05-17T09:01:22;18.10;99.90
10344;DHT22;5217;43.960;10.954;2023-05-17T09:03:55;18.10;99.90
10344;DHT22;5217;43.960;10.954;2023-05-17T09:06:23;18.20;99.90
10344;DHT22;5217;43.960;10.954;2023-05-17T09:08:53;18.20;99.90
10344;DHT22;5217;43.960;10.954;2023-05-17T09:11:26;18.20;99.90
10344;DHT22;5217;43.960;10.954;2023-05-17T09:13:58;18.20;99.90
10344;DHT22;5217;43.960;10.954;2023-05-17T09:16:27;18.30;99.90
10344;DHT22;5217;43.960;10.954;2023-05-17T09:18:58;18.20;99.90
10344;DHT22;5217;43.960;10.954;2023-05-17T09:21:28;18.30;99.90
10344;DHT22;5217;43.960;10.954;2023-05-17T09:23:58;18.30;99.90
10344;DHT22;5217;43.960;10.954;2023-05-17T09:26:40;18.40;99.90
10344;DHT22;5217;43.960;10.954;2023-05-17T09:29:09;18.30;99.90
10344;DHT22;5217;43.960;10.954;2023-05-17T09:31:38;18.30;99.90
10344;DHT22;5217;43.960;10.954;2023-05-17T09:34:09;18.30;99.90
10344;DHT22;5217;43.960;10.954;2023-05-17T09:36:41;18.40;99.90
10344;DHT22;5217;43.960;10.954;2023-05-17T09:39:10;18.40;99.90
10344;DHT22;5217;43.960;10.954;2023-05-17T09:41:41;18.40;99.90
10344;DHT22;5217;43.960;10.954;2023-05-17T09:44:12;18.40;99.90
10344;DHT22;5217;43.960;10.954;2023-05-17T09:46:41;18.40;99.90
10344;DHT22;5217;43.960;10.954;2023-05-17T09:49:13;18.40;99.90
10344;DHT22;5217;43.960;10.954;2023-05-17T09:51:43;18.40;99.90
10344;DHT22;5217;43.960;10.954;2023-05-17T09:54:12;18.50;99.90
10344;DHT22;5217;43.960;10.954;2023-05-17T09:56:40;18.50;99.90
10344;DHT22;5217;43.960;10.954;2023-05-17T09:59:13;18.50;99.90
10344;DHT22;5217;43.960;10.954;2023-05-17T10:01:43;18.50;99.90
10344;DHT22;5217;43.960;10.954;2023-05-17T10:04:13;18.50;99.90
10344;DHT22;5217;43.960;10.954;2023-05-17T10:06:48;18.60;99.90
10344;DHT22;5217;43.960;10.954;2023-05-17T10:09:21;18.60;99.90
10344;DHT22;5217;43.960;10.954;2023-05-17T10:11:51;18.60;99.90
10344;DHT22;5217;43.960;10.954;2023-05-17T10:14:22;18.50;99.90
10344;DHT22;5217;43.960;10.954;2023-05-17T10:16:54;18.60;99.90
10344;DHT22;5217;43.960;10.954;2023-05-17T10:19:25;18.60;99.90
10344;DHT22;5217;43.960;10.954;2023-05-17T10:21:54;18.60;99.90
10344;DHT22;5217;43.960;10.954;2023-05-17T10:24:46;18.60;99.90
10344;DHT22;5217;43.960;10.954;2023-05-17T10:27:15;18.60;99.90
10344;DHT22;5217;43.960;10.954;2023-05-17T10:29:44;18.60;99.90
10344;DHT22;5217;43.960;10.954;2023-05-17T10:32:19;18.70;99.90
10344;DHT22;5217;43.960;10.954;2023-05-17T10:34:51;18.70;99.90
10344;DHT22;5217;43.960;10.954;2023-05-17T10:37:35;18.70;99.90
10344;DHT22;5217;43.960;10.954;2023-05-17T10:40:05;18.70;99.90
10344;DHT22;5217;43.960;10.954;2023-05-17T10:42:41;18.80;99.90
10344;DHT22;5217;43.960;10.954;2023-05-17T10:45:11;18.70;99.90
10344;DHT22;5217;43.960;10.954;2023-05-17T10:47:40;18.80;99.90
10344;DHT22;5217;43.960;10.954;2023-05-17T10:50:12;18.80;99.90
10344;DHT22;5217;43.960;10.954;2023-05-17T10:52:51;18.80;99.90
10344;DHT22;5217;43.960;10.954;2023-05-17T10:55:22;18.90;99.90
10344;DHT22;5217;43.960;10.954;2023-05-17T10:58:14;18.90;99.90
10344;DHT22;5217;43.960;10.954;2023-05-17T11:00:45;18.90;99.90
10344;DHT22;5217;43.960;10.954;2023-05-17T11:03:16;19.00;99.90
10344;DHT22;5217;43.960;10.954;2023-05-17T11:06:13;19.00;99.90
10344;DHT22;5217;43.960;10.954;2023-05-17T11:09:07;19.00;99.90
10344;DHT22;5217;43.960;10.954;2023-05-17T11:11:36;19.00;99.90
10344;DHT22;5217;43.960;10.954;2023-05-17T11:14:04;19.00;99.90
10344;DHT22;5217;43.960;10.954;2023-05-17T11:16:35;19.00;99.90
10344;DHT22;5217;43.960;10.954;2023-05-17T11:19:08;19.10;99.90
10344;DHT22;5217;43.960;10.954;2023-05-17T11:21:46;19.20;99.90
10344;DHT22;5217;43.960;10.954;2023-05-17T11:24:18;19.20;99.90
10344;DHT22;5217;43.960;10.954;2023-05-17T11:26:54;19.30;99.90
10344;DHT22;5217;43.960;10.954;2023-05-17T11:29:28;19.30;99.90
10344;DHT22;5217;43.960;10.954;2023-05-17T11:31:57;19.40;99.90
10344;DHT22;5217;43.960;10.954;2023-05-17T11:34:26;19.40;99.90
10344;DHT22;5217;43.960;10.954;2023-05-17T11:36:56;19.40;99.90
10344;DHT22;5217;43.960;10.954;2023-05-17T11:39:24;19.50;99.90
10344;DHT22;5217;43.960;10.954;2023-05-17T11:41:55;19.50;99.90
10344;DHT22;5217;43.960;10.954;2023-05-17T11:44:26;19.50;99.90
10344;DHT22;5217;43.960;10.954;2023-05-17T11:47:02;19.50;99.90
10344;DHT22;5217;43.960;10.954;2023-05-17T11:49:36;19.50;99.90
10344;DHT22;5217;43.960;10.954;2023-05-17T11:52:07;19.60;99.90
10344;DHT22;5217;43.960;10.954;2023-05-17T11:54:37;19.60;99.90
10344;DHT22;5217;43.960;10.954;2023-05-17T11:57:08;19.60;99.90
10344;DHT22;5217;43.960;10.954;2023-05-17T11:59:38;19.70;99.90
10344;DHT22;5217;43.960;10.954;2023-05-17T12:02:07;19.70;99.90
10344;DHT22;5217;43.960;10.954;2023-05-17T12:04:37;19.80;99.90
10344;DHT22;5217;43.960;10.954;2023-05-17T12:07:09;19.80;99.90
10344;DHT22;5217;43.960;10.954;2023-05-17T12:09:38;19.80;99.90
10344;DHT22;5217;43.960;10.954;2023-05-17T12:12:07;19.90;99.90
10344;DHT22;5217;43.960;10.954;2023-05-17T12:14:36;19.90;99.90
10344;DHT22;5217;43.960;10.954;2023-05-17T12:17:07;19.90;99.90
10344;DHT22;5217;43.960;10.954;2023-05-17T12:19:36;19.90;99.90
10344;DHT22;5217;43.960;10.954;2023-05-17T12:22:05;19.90;99.90
10344;DHT22;5217;43.960;10.954;2023-05-17T12:24:40;20.00;99.90
10344;DHT22;5217;43.960;10.954;2023-05-17T12:27:09;20.00;99.90
10344;DHT22;5217;43.960;10.954;2023-05-17T12:29:38;20.10;99.90
10344;DHT22;5217;43.960;10.954;2023-05-17T12:32:07;20.00;99.90
10344;DHT22;5217;43.960;10.954;2023-05-17T12:34:37;20.00;99.90
10344;DHT22;5217;43.960;10.954;2023-05-17T12:37:06;20.00;99.90
10344;DHT22;5217;43.960;10.954;2023-05-17T12:39:38;20.00;99.90
10344;DHT22;5217;43.960;10.954;2023-05-17T12:42:08;20.00;99.90
10344;DHT22;5217;43.960;10.954;2023-05-17T12:44:36;20.10;99.90
10344;DHT22;5217;43.960;10.954;2023-05-17T12:47:05;20.10;99.90
10344;DHT22;5217;43.960;10.954;2023-05-17T12:49:37;20.10;99.90
10344;DHT22;5217;43.960;10.954;2023-05-17T12:52:06;20.20;99.90
10344;DHT22;5217;43.960;10.954;2023-05-17T12:54:34;20.20;99.90
10344;DHT22;5217;43.960;10.954;2023-05-17T12:57:12;20.10;99.90
10344;DHT22;5217;43.960;10.954;2023-05-17T12:59:48;20.20;99.90
10344;DHT22;5217;43.960;10.954;2023-05-17T13:02:18;20.20;99.90
10344;DHT22;5217;43.960;10.954;2023-05-17T13:04:47;20.20;99.90
10344;DHT22;5217;43.960;10.954;2023-05-17T13:07:20;20.20;99.90
10344;DHT22;5217;43.960;10.954;2023-05-17T13:09:50;20.30;99.90
10344;DHT22;5217;43.960;10.954;2023-05-17T13:12:22;20.30;99.90
10344;DHT22;5217;43.960;10.954;2023-05-17T13:14:52;20.40;99.90
10344;DHT22;5217;43.960;10.954;2023-05-17T13:17:24;20.40;99.90
10344;DHT22;5217;43.960;10.954;2023-05-17T13:19:53;20.40;99.90
10344;DHT22;5217;43.960;10.954;2023-05-17T13:22:24;20.40;99.90
10344;DHT22;5217;43.960;10.954;2023-05-17T13:24:53;20.50;99.90
10344;DHT22;5217;43.960;10.954;2023-05-17T13:27:23;20.40;99.90
10344;DHT22;5217;43.960;10.954;2023-05-17T13:29:51;20.40;99.90
10344;DHT22;5217;43.960;10.954;2023-05-17T13:32:20;20.50;99.90
10344;DHT22;5217;43.960;10.954;2023-05-17T13:34:49;20.50;99.90
10344;DHT22;5217;43.960;10.954;2023-05-17T13:37:17;20.50;99.90
10344;DHT22;5217;43.960;10.954;2023-05-17T13:39:47;20.60;99.90
10344;DHT22;5217;43.960;10.954;2023-05-17T13:42:15;20.50;99.90
10344;DHT22;5217;43.960;10.954;2023-05-17T13:44:45;20.60;99.90
10344;DHT22;5217;43.960;10.954;2023-05-17T13:47:14;20.60;99.80
10344;DHT22;5217;43.960;10.954;2023-05-17T13:49:43;20.60;99.40
10344;DHT22;5217;43.960;10.954;2023-05-17T13:52:11;20.60;99.50
10344;DHT22;5217;43.960;10.954;2023-05-17T13:54:39;20.60;99.40
10344;DHT22;5217;43.960;10.954;2023-05-17T13:57:08;20.50;99.40
10344;DHT22;5217;43.960;10.954;2023-05-17T13:59:36;20.50;99.30
10344;DHT22;5217;43.960;10.954;2023-05-17T14:02:07;20.50;99.10
10344;DHT22;5217;43.960;10.954;2023-05-17T14:04:36;20.50;99.00
10344;DHT22;5217;43.960;10.954;2023-05-17T14:07:05;20.50;99.00
10344;DHT22;5217;43.960;10.954;2023-05-17T14:09:34;20.40;99.20
10344;DHT22;5217;43.960;10.954;2023-05-17T14:12:03;20.40;99.40
10344;DHT22;5217;43.960;10.954;2023-05-17T14:14:31;20.40;99.30
10344;DHT22;5217;43.960;10.954;2023-05-17T14:17:00;20.40;99.40
10344;DHT22;5217;43.960;10.954;2023-05-17T14:19:30;20.40;99.70
10344;DHT22;5217;43.960;10.954;2023-05-17T14:21:59;20.40;99.80
10344;DHT22;5217;43.960;10.954;2023-05-17T14:24:27;20.40;99.90
10344;DHT22;5217;43.960;10.954;2023-05-17T14:26:56;20.40;99.90
10344;DHT22;5217;43.960;10.954;2023-05-17T14:29:24;20.40;99.90
10344;DHT22;5217;43.960;10.954;2023-05-17T14:31:53;20.40;99.90
10344;DHT22;5217;43.960;10.954;2023-05-17T14:34:22;20.40;99.90
10344;DHT22;5217;43.960;10.954;2023-05-17T14:36:52;20.40;99.90
10344;DHT22;5217;43.960;10.954;2023-05-17T14:39:20;20.40;99.90
10344;DHT22;5217;43.960;10.954;2023-05-17T14:41:49;20.40;99.90
10344;DHT22;5217;43.960;10.954;2023-05-17T14:44:18;20.40;99.90
10344;DHT22;5217;43.960;10.954;2023-05-17T14:46:46;20.40;99.60
10344;DHT22;5217;43.960;10.954;2023-05-17T14:49:14;20.40;99.40
10344;DHT22;5217;43.960;10.954;2023-05-17T14:51:43;20.50;99.60
10344;DHT22;5217;43.960;10.954;2023-05-17T14:54:13;20.50;99.80
10344;DHT22;5217;43.960;10.954;2023-05-17T14:56:42;20.50;99.80
10344;DHT22;5217;43.960;10.954;2023-05-17T14:59:11;20.50;99.60
10344;DHT22;5217;43.960;10.954;2023-05-17T15:01:39;20.60;99.60
10344;DHT22;5217;43.960;10.954;2023-05-17T15:04:08;20.50;99.40
10344;DHT22;5217;43.960;10.954;2023-05-17T15:06:36;20.50;99.70
10344;DHT22;5217;43.960;10.954;2023-05-17T15:09:05;20.50;99.80
10344;DHT22;5217;43.960;10.954;2023-05-17T15:11:39;20.50;99.80
10344;DHT22;5217;43.960;10.954;2023-05-17T15:14:08;20.50;99.80
10344;DHT22;5217;43.960;10.954;2023-05-17T15:16:37;20.50;99.80
10344;DHT22;5217;43.960;10.954;2023-05-17T15:19:06;20.50;99.80
10344;DHT22;5217;43.960;10.954;2023-05-17T15:21:34;20.50;99.70
10344;DHT22;5217;43.960;10.954;2023-05-17T15:24:03;20.50;99.70
10344;DHT22;5217;43.960;10.954;2023-05-17T15:26:32;20.50;99.50
10344;DHT22;5217;43.960;10.954;2023-05-17T15:29:02;20.50;99.30
10344;DHT22;5217;43.960;10.954;2023-05-17T15:31:31;20.50;99.20
10344;DHT22;5217;43.960;10.954;2023-05-17T15:33:59;20.50;99.00
10344;DHT22;5217;43.960;10.954;2023-05-17T15:36:28;20.50;98.80
10344;DHT22;5217;43.960;10.954;2023-05-17T15:38:56;20.50;99.20
10344;DHT22;5217;43.960;10.954;2023-05-17T15:41:25;20.50;99.20
10344;DHT22;5217;43.960;10.954;2023-05-17T15:43:56;20.50;99.20
10344;DHT22;5217;43.960;10.954;2023-05-17T15:46:25;20.50;99.40
10344;DHT22;5217;43.960;10.954;2023-05-17T15:48:54;20.50;99.50
10344;DHT22;5217;43.960;10.954;2023-05-17T15:51:24;20.50;99.30